Time;durP1;ratioP1;P1;durP2;ratioP2;P2;SDS_P1;SDS_P2;PMS_P1;PMS_P2;Temp;Humidity;BMP_temperature;BMP_pressure;BME280_temperature;BME280_humidity;BME280_pressure;Samples;Min_cycle;Max_cycle;Signal;HPM_P1;HPM_P2
2021/06/25 00:02:05;;;;;;;1.98;1.50;;;;;;;20.47;53.28;101961.78;5103663;28;20032;-64
2021/06/25 00:04:30;;;;;;;2.05;1.80;;;;;;;20.47;53.33;101968.88;5103183;28;20040;-65
2021/06/25 00:06:56;;;;;;;2.03;1.85;;;;;;;20.48;53.34;101966.06;5102955;28;20029;-65
2021/06/25 00:09:21;;;;;;;1.60;1.50;;;;;;;20.45;53.33;101958.44;5102603;28;20572;-65
2021/06/25 00:11:47;;;;;;;1.98;1.67;;;;;;;20.46;53.38;101959.25;5101011;28;20034;-65
2021/06/25 00:14:13;;;;;;;1.77;1.67;;;;;;;20.47;53.31;101958.31;5104535;28;20443;-65
2021/06/25 00:16:38;;;;;;;1.88;1.60;;;;;;;20.46;53.50;101959.25;5104589;28;20126;-65
2021/06/25 00:19:04;;;;;;;1.52;1.42;;;;;;;20.45;53.39;101960.25;5104467;28;20047;-65
2021/06/25 00:21:29;;;;;;;1.70;1.60;;;;;;;20.46;53.36;101956.59;5084669;28;20028;-65
2021/06/25 00:23:55;;;;;;;2.15;1.92;;;;;;;20.45;53.38;101950.47;5104184;28;20622;-65
2021/06/25 00:26:20;;;;;;;2.40;1.92;;;;;;;20.43;53.47;101947.16;5103113;28;20405;-65
2021/06/25 00:28:46;;;;;;;1.80;1.70;;;;;;;20.45;53.39;101949.66;5103777;28;20732;-65
2021/06/25 00:31:12;;;;;;;2.67;1.98;;;;;;;20.45;53.39;101936.44;5086191;28;20451;-65
2021/06/25 00:33:37;;;;;;;1.70;1.60;;;;;;;20.45;53.41;101942.56;5085213;28;20501;-65
2021/06/25 00:36:03;;;;;;;1.38;1.27;;;;;;;20.42;53.49;101939.41;5100210;28;20070;-65
2021/06/25 00:38:29;;;;;;;2.60;1.90;;;;;;;20.44;53.49;101940.06;5106446;28;20036;-65
2021/06/25 00:40:54;;;;;;;3.85;1.90;;;;;;;20.43;53.67;101939.22;5104629;28;20047;-65
2021/06/25 00:43:20;;;;;;;1.73;1.63;;;;;;;20.43;53.41;101933.13;5106760;28;20046;-65
2021/06/25 00:45:45;;;;;;;2.15;1.65;;;;;;;20.42;53.46;101927.00;5108569;28;20723;-65
2021/06/25 00:48:11;;;;;;;2.05;1.90;;;;;;;20.42;53.52;101923.53;5108887;28;20486;-65
2021/06/25 00:50:37;;;;;;;1.65;1.55;;;;;;;20.41;53.42;101925.34;5104599;28;20043;-65
2021/06/25 00:53:04;;;;;;;2.10;1.90;;;;;;;20.43;53.54;101919.88;5087862;28;20469;-65
2021/06/25 00:55:41;;;;;;;2.30;1.90;;;;;;;20.41;53.53;101919.22;5106284;28;20077;-65
2021/06/25 00:58:11;;;;;;;2.00;1.80;;;;;;;20.41;53.50;101916.56;5106333;28;20515;-65
2021/06/25 01:00:37;;;;;;;1.98;1.67;;;;;;;20.40;53.69;101914.88;5089942;28;20066;-65
2021/06/25 01:03:02;;;;;;;2.00;1.83;;;;;;;20.41;53.48;101916.56;5105326;28;20554;-65
2021/06/25 01:05:28;;;;;;;1.73;1.60;;;;;;;20.40;53.38;101925.47;5107319;28;20683;-65
2021/06/25 01:07:53;;;;;;;1.80;1.70;;;;;;;20.38;53.40;101922.16;5106631;28;20039;-65
2021/06/25 01:10:19;;;;;;;1.70;1.60;;;;;;;20.38;53.51;101920.34;5106333;28;20516;-65
2021/06/25 01:12:45;;;;;;;1.65;1.55;;;;;;;20.39;53.66;101918.50;5088637;28;20047;-65
2021/06/25 01:15:12;;;;;;;1.50;1.40;;;;;;;20.37;53.64;101918.69;5108720;28;20039;-65
2021/06/25 01:17:40;;;;;;;2.00;1.80;;;;;;;20.37;53.71;101908.09;5106605;28;20165;-65
2021/06/25 01:20:08;;;;;;;1.85;1.75;;;;;;;20.38;53.67;101906.28;5102060;28;20043;-65
2021/06/25 01:22:34;;;;;;;1.80;1.70;;;;;;;20.36;53.68;101905.59;5106733;28;20480;-65
2021/06/25 01:25:11;;;;;;;2.13;1.90;;;;;;;20.37;53.63;101910.75;5106001;28;20169;-65
2021/06/25 01:27:38;;;;;;;2.45;1.67;;;;;;;20.36;53.62;101906.44;5103668;28;20043;-65
2021/06/25 01:30:08;;;;;;;1.60;1.50;;;;;;;20.36;53.69;101908.25;5104344;28;20763;-65
2021/06/25 01:32:34;;;;;;;1.70;1.60;;;;;;;20.35;53.61;101906.59;5104794;28;20132;-65
2021/06/25 01:35:01;;;;;;;1.80;1.70;;;;;;;20.35;53.62;101914.53;5088751;28;20038;-65
2021/06/25 01:37:28;;;;;;;1.35;1.25;;;;;;;20.35;53.72;101906.59;5104630;28;20533;-65
2021/06/25 01:39:54;;;;;;;1.75;1.65;;;;;;;20.30;53.68;101903.59;5107084;28;20404;-65
2021/06/25 01:42:19;;;;;;;1.75;1.65;;;;;;;20.35;53.72;101910.06;5107250;28;20051;-65
2021/06/25 01:44:47;;;;;;;1.70;1.60;;;;;;;20.31;53.68;101903.44;5086437;28;20110;-65
2021/06/25 01:47:15;;;;;;;1.55;1.40;;;;;;;20.35;53.67;101917.19;5106688;28;20665;-65
2021/06/25 01:49:40;;;;;;;1.70;1.60;;;;;;;20.34;53.72;101915.53;5088353;28;20028;-65
2021/06/25 01:52:06;;;;;;;1.38;1.30;;;;;;;20.33;53.87;101911.22;5104434;28;20404;-65
2021/06/25 01:54:32;;;;;;;1.50;1.40;;;;;;;20.33;53.73;101919.97;5106312;28;20040;-65
2021/06/25 01:56:57;;;;;;;1.88;1.67;;;;;;;20.32;53.67;101915.69;5105960;28;20043;-65
2021/06/25 01:59:23;;;;;;;1.88;1.77;;;;;;;20.31;53.71;101913.19;5086782;28;20035;-65
2021/06/25 02:01:49;;;;;;;1.50;1.40;;;;;;;20.30;53.52;101915.00;5104604;28;21636;-65
2021/06/25 02:04:14;;;;;;;1.52;1.40;;;;;;;20.31;53.80;101906.09;5105997;28;20051;-65
2021/06/25 02:06:40;;;;;;;1.80;1.70;;;;;;;20.30;53.69;101911.53;5106589;28;20074;-65
2021/06/25 02:09:05;;;;;;;1.77;1.60;;;;;;;20.29;53.73;101899.25;5104185;28;20035;-65
2021/06/25 02:11:31;;;;;;;1.50;1.40;;;;;;;20.30;53.71;101899.13;5106893;28;20038;-65
2021/06/25 02:13:56;;;;;;;1.70;1.60;;;;;;;20.30;53.53;101898.31;5105361;28;20812;-65
2021/06/25 02:16:22;;;;;;;1.65;1.55;;;;;;;20.30;53.76;101895.66;5105880;28;20043;-65
2021/06/25 02:18:48;;;;;;;1.70;1.60;;;;;;;20.29;53.73;101894.84;5104345;28;20032;-65
2021/06/25 02:21:13;;;;;;;1.95;1.77;;;;;;;20.27;53.70;101899.44;5104795;28;20032;-65
2021/06/25 02:23:39;;;;;;;1.48;1.38;;;;;;;20.28;53.76;101901.09;5105056;28;20402;-65
2021/06/25 02:26:05;;;;;;;1.83;1.45;;;;;;;20.28;53.71;101903.72;5105942;28;20040;-65
2021/06/25 02:28:30;;;;;;;1.60;1.50;;;;;;;20.28;53.79;101898.44;5105868;28;20038;-65
2021/06/25 02:30:57;;;;;;;3.13;1.77;;;;;;;20.27;53.76;101898.59;5083510;28;20042;-65
2021/06/25 02:33:23;;;;;;;1.52;1.42;;;;;;;20.26;53.77;101896.94;5104824;28;20035;-65
2021/06/25 02:35:48;;;;;;;1.50;1.40;;;;;;;20.26;53.77;101889.84;5086884;28;20043;-65
2021/06/25 02:38:14;;;;;;;1.40;1.30;;;;;;;20.26;53.70;101892.47;5105342;28;20038;-65
2021/06/25 02:40:40;;;;;;;1.38;1.27;;;;;;;20.26;53.71;101894.28;5103911;28;20035;-65
2021/06/25 02:43:05;;;;;;;1.50;1.40;;;;;;;20.26;53.98;101889.84;5105726;28;20517;-65
2021/06/25 02:45:31;;;;;;;1.42;1.33;;;;;;;20.26;53.69;101894.28;5104582;28;20097;-65
2021/06/25 02:47:57;;;;;;;1.73;1.50;;;;;;;20.26;53.81;101883.72;5103152;28;20040;-65
2021/06/25 02:50:22;;;;;;;2.42;1.52;;;;;;;20.25;53.78;101890.00;5106107;28;20038;-65
2021/06/25 02:52:48;;;;;;;1.40;1.30;;;;;;;20.25;53.70;101884.69;5105545;28;20061;-65
2021/06/25 02:55:14;;;;;;;1.55;1.45;;;;;;;20.22;53.75;101878.75;5086262;28;20043;-65
2021/06/25 02:57:40;;;;;;;1.55;1.45;;;;;;;20.23;53.78;101876.94;5106245;28;20401;-65
2021/06/25 03:00:09;;;;;;;1.50;1.40;;;;;;;20.22;53.70;101881.38;5086071;28;20713;-65
2021/06/25 03:02:34;;;;;;;1.30;1.30;;;;;;;20.23;53.80;101875.13;5102664;28;20065;-65
2021/06/25 03:05:00;;;;;;;1.40;1.30;;;;;;;20.22;53.71;101873.47;5103802;28;20035;-65
2021/06/25 03:07:25;;;;;;;1.50;1.40;;;;;;;20.22;53.79;101876.09;5102528;28;20058;-65
2021/06/25 03:09:51;;;;;;;1.60;1.50;;;;;;;20.21;53.65;101861.22;5087030;28;20032;-65
2021/06/25 03:12:16;;;;;;;1.45;1.35;;;;;;;20.20;53.80;101864.84;5103178;28;20389;-65
2021/06/25 03:14:42;;;;;;;1.50;1.40;;;;;;;20.19;53.91;101857.91;5105275;28;20059;-65
2021/06/25 03:17:09;;;;;;;1.40;1.30;;;;;;;20.21;53.78;101861.22;5103399;28;20117;-65
2021/06/25 03:19:35;;;;;;;1.63;1.52;;;;;;;20.20;53.78;101861.38;5104219;28;20467;-65
2021/06/25 03:22:01;;;;;;;1.50;1.40;;;;;;;20.19;53.86;101855.25;5102936;28;20032;-65
2021/06/25 03:24:27;;;;;;;1.50;1.40;;;;;;;20.19;53.74;101863.19;5105229;28;20478;-65
2021/06/25 03:26:53;;;;;;;1.67;1.45;;;;;;;20.17;53.72;101851.13;5104160;28;20035;-65
2021/06/25 03:29:19;;;;;;;1.50;1.40;;;;;;;20.19;53.75;101854.44;5101286;28;20119;-65
2021/06/25 03:31:44;;;;;;;1.80;1.70;;;;;;;20.18;53.80;101847.50;5102944;28;20044;-65
2021/06/25 03:34:10;;;;;;;1.58;1.25;;;;;;;20.19;53.84;101851.78;5103179;28;20043;-65
2021/06/25 03:36:35;;;;;;;1.50;1.40;;;;;;;20.19;53.67;101854.44;5082595;28;20040;-65
2021/06/25 03:39:01;;;;;;;1.77;1.65;;;;;;;20.19;53.70;101851.78;5100486;28;20043;-65
2021/06/25 03:41:27;;;;;;;1.40;1.30;;;;;;;20.18;53.74;101847.50;5103671;28;20447;-65
2021/06/25 03:43:52;;;;;;;1.40;1.30;;;;;;;20.18;53.82;101845.66;5103826;28;20515;-65
2021/06/25 03:46:20;;;;;;;1.63;1.50;;;;;;;20.17;53.79;101849.31;5082276;28;20043;-65
2021/06/25 03:48:45;;;;;;;1.75;1.40;;;;;;;20.16;53.78;101839.72;5102359;28;20670;-65
2021/06/25 03:51:11;;;;;;;1.60;1.50;;;;;;;20.17;53.79;101845.84;5104575;28;20028;-65
2021/06/25 03:53:36;;;;;;;3.53;1.77;;;;;;;20.18;54.29;101828.97;5104294;28;20047;-66
2021/06/25 03:56:12;;;;;;;2.55;1.60;;;;;;;20.16;54.41;101837.06;5103249;28;20035;-65
2021/06/25 03:58:46;;;;;;;2.22;1.40;;;;;;;20.17;53.98;101836.09;5103371;28;20035;-65
2021/06/25 04:01:12;;;;;;;1.60;1.40;;;;;;;20.18;53.95;101835.09;5102904;28;20112;-65
2021/06/25 04:03:38;;;;;;;1.30;1.30;;;;;;;20.18;53.91;101842.19;5103626;28;20130;-65
2021/06/25 04:06:05;;;;;;;1.67;1.58;;;;;;;20.18;53.90;101834.25;5102944;28;20040;-64
2021/06/25 04:08:32;;;;;;;2.20;1.23;;;;;;;20.16;53.91;101838.88;5102817;28;20046;-64
2021/06/25 04:10:59;;;;;;;1.55;1.23;;;;;;;20.17;53.83;101827.31;5102908;28;20485;-64
2021/06/25 04:13:26;;;;;;;1.30;1.27;;;;;;;20.16;53.74;101830.94;5104190;28;20077;-64
2021/06/25 04:15:53;;;;;;;1.60;1.50;;;;;;;20.16;53.77;101825.66;5089092;28;20036;-64
2021/06/25 04:18:19;;;;;;;1.50;1.40;;;;;;;20.16;53.82;101823.03;5107326;28;20046;-64
2021/06/25 04:20:45;;;;;;;2.38;1.70;;;;;;;20.15;53.73;101826.66;5107263;28;20036;-64
2021/06/25 04:23:11;;;;;;;1.52;1.42;;;;;;;20.15;53.79;101824.00;5089068;28;20047;-64
2021/06/25 04:25:37;;;;;;;1.55;1.38;;;;;;;20.18;53.77;101826.34;5108049;28;20046;-66
2021/06/25 04:28:03;;;;;;;1.98;1.67;;;;;;;20.35;53.54;101825.41;5075629;28;20042;-67
2021/06/25 04:30:29;;;;;;;1.58;1.48;;;;;;;20.47;53.28;101829.47;5106849;28;20459;-66
2021/06/25 04:32:58;;;;;;;2.20;2.00;;;;;;;20.57;53.33;101825.84;5108392;28;20101;-64
2021/06/25 04:35:24;;;;;;;1.58;1.48;;;;;;;20.54;53.69;101826.19;5105344;28;20039;-65
2021/06/25 04:37:49;;;;;;;1.60;1.50;;;;;;;20.51;53.49;101822.03;5105789;28;20188;-64
2021/06/25 04:40:15;;;;;;;1.70;1.60;;;;;;;20.50;53.51;101820.38;5107340;28;20039;-65
2021/06/25 04:42:41;;;;;;;1.88;1.55;;;;;;;20.50;53.44;101815.09;5068836;28;20046;-64
2021/06/25 04:45:08;;;;;;;1.50;1.40;;;;;;;20.50;53.30;101813.28;5106374;28;20533;-65
2021/06/25 04:47:33;;;;;;;3.58;1.70;;;;;;;20.54;53.37;101812.94;5093654;28;20053;-65
2021/06/25 04:49:59;;;;;;;2.10;1.70;;;;;;;20.56;53.29;101816.25;5094596;28;20036;-64
2021/06/25 04:52:25;;;;;;;3.17;1.60;;;;;;;20.58;53.31;101816.94;5103058;28;20501;-64
2021/06/25 04:54:50;;;;;;;1.60;1.50;;;;;;;20.58;52.98;101817.75;5067868;28;20036;-64
2021/06/25 04:57:16;;;;;;;3.15;1.58;;;;;;;20.60;53.02;101813.13;5104000;28;20561;-64
2021/06/25 04:59:42;;;;;;;1.63;1.52;;;;;;;20.62;53.17;101811.16;5079922;28;20042;-64
2021/06/25 05:02:07;;;;;;;1.70;1.60;;;;;;;20.63;52.97;101815.44;5106240;28;20130;-65
2021/06/25 05:04:33;;;;;;;2.17;1.52;;;;;;;20.65;52.92;101816.13;5079436;28;20043;-65
2021/06/25 05:06:58;;;;;;;1.60;1.50;;;;;;;20.67;52.87;101818.63;5105274;28;20047;-64
2021/06/25 05:09:24;;;;;;;2.22;1.63;;;;;;;20.64;52.87;101808.34;5084515;28;20534;-65
2021/06/25 05:11:50;;;;;;;1.70;1.60;;;;;;;20.67;52.92;101811.50;5095199;28;20035;-64
2021/06/25 05:14:15;;;;;;;1.80;1.70;;;;;;;20.68;52.88;101802.59;5076999;28;20089;-65
2021/06/25 05:16:41;;;;;;;1.58;1.48;;;;;;;20.68;52.81;101804.41;5105058;28;20065;-65
2021/06/25 05:19:06;;;;;;;1.60;1.50;;;;;;;20.69;52.74;101804.22;5063719;28;20044;-65
2021/06/25 05:21:32;;;;;;;1.60;1.50;;;;;;;20.66;52.69;101796.63;5105285;28;20393;-64
2021/06/25 05:23:58;;;;;;;3.50;1.60;;;;;;;20.71;52.79;101802.25;5066662;28;20039;-65
2021/06/25 05:26:23;;;;;;;1.60;1.50;;;;;;;20.69;52.60;101804.22;5101901;28;20073;-64
2021/06/25 05:28:49;;;;;;;3.17;1.80;;;;;;;20.72;52.79;101811.03;5097007;28;20044;-64
2021/06/25 05:31:15;;;;;;;1.50;1.40;;;;;;;20.73;52.64;101805.56;5080582;28;20466;-64
2021/06/25 05:33:40;;;;;;;2.72;1.60;;;;;;;20.73;52.70;101808.22;5104277;28;20493;-64
2021/06/25 05:36:06;;;;;;;1.77;1.42;;;;;;;20.73;52.62;101802.91;5081028;27;20036;-64
2021/06/25 05:38:32;;;;;;;1.58;1.48;;;;;;;20.74;52.84;101795.81;5106524;28;20529;-64
2021/06/25 05:40:57;;;;;;;1.67;1.42;;;;;;;20.74;52.67;101799.28;5084812;28;20044;-64
2021/06/25 05:43:23;;;;;;;1.85;1.55;;;;;;;20.75;52.81;101806.22;5105121;28;20055;-64
2021/06/25 05:45:49;;;;;;;2.13;1.92;;;;;;;20.76;52.65;101796.47;5081424;28;20040;-64
2021/06/25 05:48:14;;;;;;;1.60;1.50;;;;;;;20.75;52.58;101794.81;5097964;28;20036;-64
2021/06/25 05:50:40;;;;;;;1.77;1.60;;;;;;;20.78;52.58;101802.41;5080259;28;20108;-64
2021/06/25 05:53:06;;;;;;;1.70;1.60;;;;;;;20.74;52.75;101801.09;5102749;28;20439;-64
2021/06/25 05:55:32;;;;;;;1.70;1.60;;;;;;;20.78;52.66;101799.78;5077182;28;20086;-64
2021/06/25 05:57:57;;;;;;;1.70;1.60;;;;;;;20.74;52.48;101795.81;5089088;28;20070;-64
2021/06/25 06:00:23;;;;;;;1.60;1.50;;;;;;;20.79;52.51;101804.91;5080300;28;20489;-65
2021/06/25 06:02:49;;;;;;;1.63;1.52;;;;;;;20.79;52.57;101804.06;5096561;28;20055;-64
2021/06/25 06:05:15;;;;;;;1.63;1.52;;;;;;;20.81;52.55;101802.91;5101064;28;20431;-64
2021/06/25 06:07:41;;;;;;;2.25;1.63;;;;;;;20.83;52.49;101804.59;5080029;28;20382;-64
2021/06/25 06:10:11;;;;;;;1.60;1.50;;;;;;;20.84;52.52;101803.59;5095754;28;20548;-64
2021/06/25 06:12:37;;;;;;;;;;;;;;;20.84;52.54;101807.09;5077184;27;20039;-65
2021/06/25 06:15:03;;;;;;;1.73;1.48;;;;;;;20.85;52.38;101816.69;5105848;28;19916;-65
2021/06/25 06:17:28;;;;;;;1.63;1.52;;;;;;;20.86;52.66;101817.50;5071010;28;20044;-64
2021/06/25 06:19:55;;;;;;;1.52;1.42;;;;;;;20.84;52.40;101808.91;5106657;28;20039;-64
2021/06/25 06:33:32;;;;;;;1.67;1.58;;;;;;;20.92;52.63;101804.44;5081679;28;20047;-64
2021/06/25 06:36:00;;;;;;;1.60;1.50;;;;;;;20.94;52.62;101813.03;5102165;28;20046;-64
2021/06/25 06:38:28;;;;;;;1.70;1.60;;;;;;;20.97;52.64;101806.59;5078820;28;20631;-64
2021/06/25 06:40:53;;;;;;;1.52;1.42;;;;;;;20.96;52.43;101799.63;5100198;28;20046;-64
2021/06/25 06:43:19;;;;;;;1.77;1.67;;;;;;;20.99;52.34;101807.25;5074509;28;20512;-64
2021/06/25 06:45:44;;;;;;;1.63;1.52;;;;;;;21.03;52.39;101811.25;5105434;28;20114;-64
2021/06/25 06:48:10;;;;;;;1.63;1.52;;;;;;;21.07;52.21;101815.22;5050337;28;20059;-65
2021/06/25 06:50:36;;;;;;;1.90;1.70;;;;;;;21.06;52.21;101797.69;5092631;28;20044;-64
2021/06/25 06:53:02;;;;;;;1.88;1.77;;;;;;;21.15;52.31;101811.75;5106254;28;20032;-64
2021/06/25 06:55:28;;;;;;;1.75;1.65;;;;;;;21.19;52.19;101805.16;5076867;28;20078;-64
2021/06/25 06:57:53;;;;;;;1.80;1.60;;;;;;;21.22;51.94;101802.97;5104227;28;20478;-64
2021/06/25 07:00:19;;;;;;;1.50;1.40;;;;;;;21.26;51.99;101806.16;5068905;28;20055;-65
2021/06/25 07:02:45;;;;;;;1.85;1.50;;;;;;;21.23;51.90;101796.69;5103661;28;20538;-64
2021/06/25 07:05:13;;;;;;;1.63;1.52;;;;;;;21.32;51.84;101803.66;5061897;28;20063;-65
2021/06/25 07:07:39;;;;;;;1.67;1.58;;;;;;;21.34;51.76;101812.28;5085515;28;20035;-64
2021/06/25 07:10:07;;;;;;;1.75;1.65;;;;;;;21.36;51.75;101806.81;5059135;28;20130;-65
2021/06/25 07:12:32;;;;;;;2.47;1.75;;;;;;;21.39;52.02;101825.03;5092955;28;20035;-65
2021/06/25 07:14:58;;;;;;;2.38;1.77;;;;;;;21.40;51.87;101824.03;5073843;28;20124;-65
2021/06/25 07:17:24;;;;;;;2.17;1.85;;;;;;;21.46;51.74;101818.06;5095128;28;20039;-64
2021/06/25 07:19:51;;;;;;;1.90;1.80;;;;;;;21.48;51.71;101815.25;5062251;28;20445;-64
2021/06/25 07:22:17;;;;;;;2.13;1.83;;;;;;;21.52;51.70;101809.44;5100740;28;20243;-64
2021/06/25 07:24:42;;;;;;;1.75;1.65;;;;;;;21.53;51.53;101816.41;5084514;28;20049;-65
2021/06/25 07:27:08;;;;;;;1.65;1.45;;;;;;;21.58;51.43;101814.09;5104113;28;20069;-65
2021/06/25 07:29:34;;;;;;;1.55;1.45;;;;;;;21.62;51.59;101819.88;5055480;28;20090;-65
2021/06/25 07:32:00;;;;;;;1.50;1.40;;;;;;;21.66;51.31;101823.84;5103905;28;20039;-64
2021/06/25 07:34:26;;;;;;;2.17;1.60;;;;;;;21.69;51.41;101808.44;5054388;28;20078;-65
2021/06/25 07:36:51;;;;;;;2.10;1.90;;;;;;;21.75;51.36;101809.59;5092138;28;20053;-64
2021/06/25 07:39:17;;;;;;;1.85;1.60;;;;;;;21.79;51.04;101808.25;5101324;28;20023;-65
2021/06/25 07:41:42;;;;;;;1.60;1.50;;;;;;;21.81;51.03;101808.91;5078371;28;20073;-64
2021/06/25 07:44:08;;;;;;;2.92;1.90;;;;;;;21.78;51.63;101798.66;5105943;28;20066;-65
2021/06/25 07:46:34;;;;;;;2.65;2.00;;;;;;;21.44;52.38;101801.50;5080213;28;20043;-65
2021/06/25 07:48:59;;;;;;;2.97;2.00;;;;;;;21.37;53.06;101793.41;5083031;28;20043;-65
2021/06/25 07:51:25;;;;;;;2.60;1.90;;;;;;;21.44;52.46;101801.50;5075495;27;20126;-65
2021/06/25 07:53:52;;;;;;;2.40;2.10;;;;;;;21.43;52.36;101794.56;5100732;28;20035;-66
2021/06/25 07:56:18;;;;;;;3.70;2.20;;;;;;;21.42;52.05;101787.59;5077816;28;20065;-65
2021/06/25 07:58:43;;;;;;;2.30;2.10;;;;;;;21.45;51.85;101797.88;5102066;28;20092;-66
2021/06/25 08:01:09;;;;;;;2.40;2.20;;;;;;;21.47;51.53;101787.09;5077371;28;20028;-65
2021/06/25 08:03:34;;;;;;;2.28;2.00;;;;;;;21.45;51.61;101803.16;5105816;28;20039;-65
2021/06/25 08:06:01;;;;;;;2.40;2.20;;;;;;;21.42;51.76;101804.34;5070233;28;20039;-65
2021/06/25 08:08:27;;;;;;;2.38;2.17;;;;;;;21.36;51.68;101799.72;5069073;28;20067;-65
2021/06/25 08:10:53;;;;;;;2.08;1.90;;;;;;;21.37;52.03;101795.25;5083043;28;20028;-63
2021/06/25 08:13:18;;;;;;;2.00;1.90;;;;;;;21.37;51.64;101797.88;5103797;28;20307;-65
2021/06/25 08:15:49;;;;;;;2.10;1.83;;;;;;;21.35;51.33;101795.38;5075109;28;20051;-65
2021/06/25 08:18:16;;;;;;;3.42;2.20;;;;;;;21.30;51.51;101791.59;5101249;28;20036;-66
2021/06/25 08:20:42;;;;;;;2.00;1.80;;;;;;;21.24;52.45;101790.44;5069032;28;20043;-66
2021/06/25 08:23:08;;;;;;;2.60;2.10;;;;;;;21.24;52.11;101795.72;5103080;28;20042;-66
2021/06/25 08:25:33;;;;;;;3.60;2.10;;;;;;;21.41;51.99;101791.25;5103199;28;20031;-64
2021/06/25 08:27:59;;;;;;;2.03;1.83;;;;;;;21.55;51.51;101787.09;5079552;28;20428;-64
2021/06/25 08:30:25;;;;;;;4.35;2.03;;;;;;;21.64;51.36;101794.88;5086074;28;20027;-63
2021/06/25 08:32:52;;;;;;;1.90;1.80;;;;;;;21.73;51.02;101790.38;5076392;28;20038;-64
2021/06/25 08:35:18;;;;;;;1.70;1.60;;;;;;;21.76;51.02;101797.16;5100406;28;20039;-64
2021/06/25 08:37:44;;;;;;;2.08;1.70;;;;;;;21.78;50.98;101796.00;5063910;28;20035;-64
2021/06/25 08:40:10;;;;;;;1.80;1.70;;;;;;;21.79;50.76;101788.88;5103808;28;20518;-64
2021/06/25 08:42:37;;;;;;;2.10;1.70;;;;;;;21.82;50.76;101796.50;5083055;28;20516;-64
2021/06/25 08:45:06;;;;;;;1.80;1.70;;;;;;;21.83;50.69;101793.66;5098462;28;20036;-64
2021/06/25 08:47:38;;;;;;;1.83;1.60;;;;;;;21.85;50.73;101793.50;5066335;28;20416;-64
2021/06/25 08:50:05;;;;;;;1.80;1.70;;;;;;;21.86;50.82;101787.19;5099655;28;20397;-65
2021/06/25 08:52:30;;;;;;;1.25;1.20;;;;;;;21.88;50.78;101790.50;5058098;28;20770;-65
2021/06/25 08:54:56;;;;;;;1.70;1.60;;;;;;;21.89;50.64;101789.50;5074266;28;20042;-64
2021/06/25 08:57:21;;;;;;;1.70;1.60;;;;;;;21.91;50.49;101784.88;5080884;28;20031;-64
2021/06/25 08:59:47;;;;;;;1.65;1.55;;;;;;;21.94;50.74;101784.53;5081933;28;20040;-65
2021/06/25 09:02:14;;;;;;;1.63;1.52;;;;;;;21.95;50.50;101781.69;5087880;28;20060;-65
2021/06/25 09:04:41;;;;;;;1.70;1.60;;;;;;;21.98;50.49;101773.41;5079347;28;20072;-65
2021/06/25 09:07:08;;;;;;;1.75;1.65;;;;;;;22.00;50.14;101776.72;5105929;28;20043;-65
2021/06/25 09:09:36;;;;;;;1.45;1.35;;;;;;;22.03;50.45;101783.50;5068771;28;20047;-62
2021/06/25 09:12:24;;;;;;;1.50;1.40;;;;;;;21.99;50.29;101777.72;5096261;28;20028;-64
2021/06/25 09:15:06;;;;;;;1.80;1.70;;;;;;;22.06;50.61;101785.00;5081131;28;20043;-64
2021/06/25 09:17:34;;;;;;;1.65;1.50;;;;;;;22.03;50.15;101773.72;5102172;28;20062;-64
2021/06/25 09:20:01;;;;;;;1.60;1.50;;;;;;;22.06;50.14;101777.03;5081174;28;20031;-62
2021/06/25 09:22:27;;;;;;;1.60;1.50;;;;;;;22.02;50.41;101769.41;5100523;28;20036;-64
2021/06/25 09:25:07;;;;;;;1.50;1.40;;;;;;;22.05;50.29;101775.38;5077516;28;20036;-64
2021/06/25 09:27:33;;;;;;;1.58;1.48;;;;;;;22.02;50.58;101779.19;5102806;28;20507;-64
2021/06/25 09:30:06;;;;;;;1.70;1.60;;;;;;;21.97;50.71;101773.56;5101922;28;20543;-65
2021/06/25 09:32:37;;;;;;;1.35;1.25;;;;;;;22.00;50.43;101766.09;5093703;27;20089;-64
2021/06/25 09:35:18;;;;;;;1.70;1.60;;;;;;;22.00;50.66;101767.94;5098899;28;20092;-62
2021/06/25 09:37:46;;;;;;;1.58;1.45;;;;;;;22.01;50.53;101770.41;5105746;28;20482;-64
2021/06/25 09:40:13;;;;;;;1.50;1.40;;;;;;;21.99;50.62;101777.72;5072512;28;20442;-64
2021/06/25 09:42:42;;;;;;;1.50;1.40;;;;;;;21.99;50.71;101783.00;5093081;28;20144;-64
2021/06/25 09:45:16;;;;;;;1.73;1.57;;;;;;;21.98;50.67;101784.00;5095411;28;20062;-64
2021/06/25 09:47:44;;;;;;;1.55;1.45;;;;;;;21.98;50.45;101785.84;5077876;28;20074;-64
2021/06/25 09:50:14;;;;;;;1.50;1.40;;;;;;;21.99;50.60;101787.50;5102730;28;20118;-62
2021/06/25 09:52:57;;;;;;;;;;;;;;;21.98;50.52;101780.53;5078884;28;20044;-64
2021/06/25 09:55:51;;;;;;;1.45;1.35;;;;;;;21.97;50.69;101784.19;5104482;28;20743;-64
2021/06/25 10:03:49;;;;;;;1.90;1.80;;;;;;;21.96;50.28;101783.34;5090305;28;20031;-63
2021/06/25 10:06:23;;;;;;;1.77;1.60;;;;;;;21.97;50.72;101786.84;5086810;28;20035;-64
2021/06/25 10:08:50;;;;;;;1.88;1.58;;;;;;;21.94;50.63;101771.28;5098848;28;20035;-64
2021/06/25 10:11:18;;;;;;;1.50;1.40;;;;;;;21.99;50.51;101787.50;5082561;28;20027;-64
2021/06/25 10:13:44;;;;;;;1.60;1.50;;;;;;;22.00;50.61;101779.34;5089123;28;20043;-64
2021/06/25 10:16:11;;;;;;;1.48;1.38;;;;;;;22.01;50.58;101777.53;5103555;28;20043;-64
2021/06/25 10:18:42;;;;;;;1.55;1.45;;;;;;;21.99;50.60;101777.72;5078547;28;20117;-63
2021/06/25 10:21:21;;;;;;;1.70;1.60;;;;;;;22.02;50.41;101771.22;5102481;28;20028;-64
2021/06/25 10:23:52;;;;;;;1.38;1.35;;;;;;;21.98;50.17;101757.50;5078171;27;20134;-64
2021/06/25 10:26:20;;;;;;;2.25;1.63;;;;;;;22.04;50.50;101766.56;5101786;28;20111;-64
2021/06/25 10:28:47;;;;;;;1.55;1.45;;;;;;;22.06;50.42;101769.09;5048873;28;20059;-64
2021/06/25 10:31:15;;;;;;;1.80;1.65;;;;;;;22.06;50.42;101761.13;5101056;28;20027;-64
2021/06/25 10:33:42;;;;;;;1.63;1.52;;;;;;;22.08;50.18;101764.44;5077037;28;20043;-65
2021/06/25 10:36:12;;;;;;;1.70;1.60;;;;;;;22.08;50.59;101761.78;5083697;28;20145;-64
2021/06/25 10:38:43;;;;;;;;;;;;;;;22.10;50.35;101757.97;5082211;28;20039;-64
2021/06/25 10:41:10;;;;;;;1.35;1.30;;;;;;;22.11;50.31;101761.47;5100550;28;20363;-64
2021/06/25 10:43:50;;;;;;;1.60;1.50;;;;;;;22.12;50.04;101760.47;5076287;28;21231;-64
2021/06/25 10:46:24;;;;;;;1.67;1.55;;;;;;;22.14;50.14;101756.63;5089327;28;20068;-64
2021/06/25 10:48:53;;;;;;;2.72;1.40;;;;;;;22.15;49.93;101754.81;5097989;28;20052;-64
2021/06/25 10:51:24;;;;;;;1.98;1.63;;;;;;;22.14;50.10;101753.97;5075612;28;20076;-64
2021/06/25 10:54:14;;;;;;;1.75;1.60;;;;;;;22.18;50.26;101759.75;5077351;28;20118;-64
2021/06/25 10:56:59;;;;;;;1.83;1.70;;;;;;;22.17;50.23;101756.28;5078797;28;20042;-64
2021/06/25 10:59:30;;;;;;;1.50;1.40;;;;;;;22.21;50.29;101762.06;5073567;28;20054;-64
2021/06/25 11:01:58;;;;;;;1.40;1.30;;;;;;;22.21;50.01;101759.41;5083332;28;20047;-63
2021/06/25 11:04:30;;;;;;;1.55;1.45;;;;;;;22.20;49.97;101763.06;5106145;28;20034;-64
2021/06/25 11:06:57;;;;;;;2.13;1.70;;;;;;;22.21;50.32;101762.88;5079580;28;20035;-64
2021/06/25 11:09:24;;;;;;;1.85;1.73;;;;;;;22.23;49.85;101758.22;5101170;28;20050;-64
2021/06/25 11:12:09;;;;;;;1.50;1.40;;;;;;;22.25;49.93;101760.72;5061753;28;20066;-64
2021/06/25 11:14:35;;;;;;;1.58;1.48;;;;;;;22.24;50.09;101757.22;5085929;28;20038;-63
2021/06/25 11:17:01;;;;;;;1.45;1.35;;;;;;;22.25;49.94;101758.88;5076693;28;20500;-64
2021/06/25 11:19:35;;;;;;;1.85;1.63;;;;;;;22.25;49.92;101750.91;5099277;27;20078;-64
2021/06/25 11:22:00;;;;;;;2.00;1.90;;;;;;;22.24;49.87;101757.22;5068360;28;20052;-64
2021/06/25 11:24:49;;;;;;;1.67;1.58;;;;;;;22.26;50.03;101754.41;5105039;28;20104;-64
2021/06/25 11:27:15;;;;;;;1.52;1.42;;;;;;;22.25;49.90;101756.22;5076390;28;20080;-64
2021/06/25 11:29:45;;;;;;;2.80;1.77;;;;;;;22.27;49.93;101754.25;5094311;28;20043;-64
2021/06/25 11:32:11;;;;;;;;;;;;;;;22.28;49.81;101744.47;5047302;28;20031;-64
2021/06/25 11:34:37;;;;;;;1.98;1.63;;;;;;;22.29;50.11;101744.28;5084536;28;20716;-64
2021/06/25 11:37:02;;;;;;;2.03;1.83;;;;;;;22.30;49.96;101745.94;5078799;28;20043;-64
2021/06/25 11:39:33;;;;;;;2.28;1.90;;;;;;;22.30;50.09;101740.63;5085181;28;20075;-64
2021/06/25 11:42:08;;;;;;;1.88;1.77;;;;;;;22.31;50.11;101736.16;5069962;28;20499;-64
2021/06/25 11:44:40;;;;;;;2.00;1.80;;;;;;;22.32;50.17;101745.78;5105657;28;20507;-64